Time;durP1;ratioP1;P1;durP2;ratioP2;P2;SDS_P1;SDS_P2;PMS_P1;PMS_P2;Temp;Humidity;BMP_temperature;BMP_pressure;BME280_temperature;BME280_humidity;BME280_pressure;Samples;Min_cycle;Max_cycle;Signal;HPM_P1;HPM_P2
2021/12/27 00:02:15;;;;;;;14.68;7.70;;;;;;;-4.16;58.37;100889.05;1738554;80;21497;-60
2021/12/27 00:04:44;;;;;;;22.90;10.55;;;;;;;-4.14;58.52;100889.05;1736119;80;21035;-58
2021/12/27 00:07:11;;;;;;;18.17;9.03;;;;;;;-4.16;58.52;100889.50;1740588;80;21079;-58
2021/12/27 00:09:39;;;;;;;13.95;7.90;;;;;;;-4.15;58.52;100893.78;1740652;80;21325;-59
2021/12/27 00:12:07;;;;;;;18.32;9.08;;;;;;;-4.09;58.58;100903.98;1728218;81;21078;-57
2021/12/27 00:14:34;;;;;;;17.50;9.08;;;;;;;-4.03;58.58;100898.77;1750305;80;21061;-58
2021/12/27 00:17:00;;;;;;;16.05;9.20;;;;;;;-4.00;58.29;100901.31;1746392;80;21240;-58
2021/12/27 00:19:28;;;;;;;14.13;8.45;;;;;;;-4.03;58.36;100898.77;1753621;80;21043;-58
2021/12/27 00:21:54;;;;;;;16.12;9.20;;;;;;;-4.03;58.33;100905.20;1748237;80;21529;-58
2021/12/27 00:24:21;;;;;;;19.15;9.55;;;;;;;-4.04;58.36;100909.91;1750421;80;21110;-59
2021/12/27 00:26:48;;;;;;;15.15;9.13;;;;;;;-4.07;58.38;100911.23;1747263;80;21067;-59
2021/12/27 00:29:15;;;;;;;18.05;9.23;;;;;;;-4.05;58.52;100910.80;1730490;80;21232;-58
2021/12/27 00:31:42;;;;;;;15.23;8.98;;;;;;;-4.04;58.57;100912.48;1738445;80;21010;-59
2021/12/27 00:34:09;;;;;;;13.55;7.35;;;;;;;-4.01;58.47;100917.59;1740237;80;21062;-58
2021/12/27 00:36:35;;;;;;;16.50;7.58;;;;;;;-4.01;58.54;100916.31;1743945;80;21146;-58
2021/12/27 00:39:02;;;;;;;13.83;8.05;;;;;;;-3.98;58.48;100914.16;1741395;80;21033;-58
2021/12/27 00:41:28;;;;;;;13.53;7.67;;;;;;;-3.98;58.47;100916.72;1739189;80;21160;-59
2021/12/27 00:43:55;;;;;;;15.55;8.13;;;;;;;-4.03;58.67;100910.34;1729104;82;21591;-58
2021/12/27 00:46:21;;;;;;;17.90;8.25;;;;;;;-4.03;58.52;100909.50;1736158;80;21070;-58
2021/12/27 00:48:48;;;;;;;16.62;8.43;;;;;;;-4.10;58.54;100913.86;1731685;81;21669;-58
2021/12/27 00:51:14;;;;;;;15.43;8.25;;;;;;;-4.21;58.66;100912.67;1705995;82;21055;-59
2021/12/27 00:53:41;;;;;;;14.50;8.10;;;;;;;-4.28;59.02;100907.63;1725984;80;21067;-59
2021/12/27 00:56:07;;;;;;;15.15;7.72;;;;;;;-4.35;59.25;100898.69;1720366;82;21078;-58
2021/12/27 00:58:34;;;;;;;15.05;8.75;;;;;;;-4.34;59.52;100902.98;1734596;80;21121;-58
2021/12/27 01:01:00;;;;;;;14.15;8.75;;;;;;;-4.28;59.57;100906.34;1724712;80;21083;-60
2021/12/27 01:03:28;;;;;;;15.05;7.12;;;;;;;-4.26;59.56;100908.45;1732350;80;21098;-58
2021/12/27 01:05:54;;;;;;;15.90;8.65;;;;;;;-4.30;59.57;100914.91;1734820;80;23336;-60
2021/12/27 01:08:21;;;;;;;16.85;8.15;;;;;;;-4.30;59.79;100908.93;1742518;80;21079;-58
2021/12/27 01:13:22;;;;;;;14.78;7.95;;;;;;;-4.20;59.93;100914.80;1723374;81;21101;-59
2021/12/27 01:15:52;;;;;;;15.72;7.75;;;;;;;-4.16;59.77;100913.91;1742119;80;21034;-58
2021/12/27 01:18:18;;;;;;;14.45;8.78;;;;;;;-4.12;59.72;100914.28;1724879;80;21168;-59
2021/12/27 01:20:46;;;;;;;15.03;7.97;;;;;;;-4.11;59.76;100914.72;1726944;80;21067;-58
2021/12/27 01:23:13;;;;;;;15.43;8.65;;;;;;;-4.06;59.69;100911.66;1703817;82;21807;-60
2021/12/27 01:25:40;;;;;;;18.27;8.48;;;;;;;-4.03;59.59;100914.64;1736685;80;21142;-58
2021/12/27 01:28:06;;;;;;;15.25;8.48;;;;;;;-4.03;59.77;100912.91;1741070;80;21681;-58
2021/12/27 01:30:37;;;;;;;14.78;7.62;;;;;;;-3.96;59.92;100911.13;1738922;80;21102;-58
2021/12/27 01:33:01;;;;;;;17.60;8.75;;;;;;;-3.87;59.76;100915.30;1736905;80;21050;-58
2021/12/27 01:35:28;;;;;;;14.90;8.10;;;;;;;-3.82;59.70;100918.66;1740783;81;20980;-58
2021/12/27 01:37:54;;;;;;;18.77;8.40;;;;;;;-3.76;59.70;100925.03;1748489;80;21055;-58
2021/12/27 01:40:23;;;;;;;11.93;7.35;;;;;;;-3.70;59.68;100923.65;1730923;80;20984;-58
2021/12/27 01:43:15;;;;;;;16.10;9.05;;;;;;;-3.62;59.61;100921.83;1730568;80;21824;-58
2021/12/27 01:45:47;;;;;;;20.57;8.58;;;;;;;-3.59;59.47;100924.38;1729162;81;21074;-58
2021/12/27 01:48:14;;;;;;;19.25;9.30;;;;;;;-3.56;59.39;100923.05;1745025;80;21038;-57
2021/12/27 01:50:43;;;;;;;14.75;8.05;;;;;;;-3.53;59.49;100929.02;1736752;80;21059;-57
2021/12/27 01:53:10;;;;;;;19.02;9.05;;;;;;;-3.54;59.54;100926.89;1729939;80;21050;-57
2021/12/27 01:55:37;;;;;;;17.02;8.45;;;;;;;-3.55;59.59;100931.61;1737605;81;21118;-59
2021/12/27 01:58:03;;;;;;;16.85;7.65;;;;;;;-3.56;59.75;100933.34;1724327;81;21086;-58
2021/12/27 02:00:33;;;;;;;15.03;8.35;;;;;;;-3.52;59.71;100933.30;1742498;80;21015;-59
2021/12/27 02:02:59;;;;;;;16.15;9.20;;;;;;;-3.51;59.79;100931.13;1741301;80;21074;-59
2021/12/27 02:05:26;;;;;;;15.70;8.68;;;;;;;-3.50;59.85;100930.27;1705246;80;21047;-58
2021/12/27 02:07:54;;;;;;;18.60;8.78;;;;;;;-3.43;59.85;100933.17;1737333;80;22574;-58
2021/12/27 02:10:20;;;;;;;15.15;9.08;;;;;;;-3.41;59.65;100934.02;1745155;80;21080;-60
2021/12/27 02:12:47;;;;;;;14.50;7.45;;;;;;;-3.40;59.88;100936.99;1739018;80;21512;-60
2021/12/27 02:15:13;;;;;;;15.23;7.05;;;;;;;-3.35;59.90;100924.91;1729192;80;21001;-57
2021/12/27 02:17:43;;;;;;;12.73;7.83;;;;;;;-3.28;59.85;100926.52;1736868;80;21082;-57
2021/12/27 02:20:19;;;;;;;18.00;8.73;;;;;;;-3.20;59.61;100931.13;1730331;81;21148;-57
2021/12/27 02:22:46;;;;;;;13.43;7.15;;;;;;;-3.18;59.46;100926.83;1737354;80;21094;-58
2021/12/27 02:25:14;;;;;;;14.58;7.70;;;;;;;-3.19;59.57;100931.55;1727709;80;21106;-58
2021/12/27 02:27:41;;;;;;;16.17;8.45;;;;;;;-3.17;59.62;100929.80;1750825;80;21669;-58
2021/12/27 02:30:10;;;;;;;14.73;7.70;;;;;;;-3.14;59.62;100931.91;1717066;80;20989;-58
2021/12/27 02:32:51;;;;;;;18.48;8.60;;;;;;;-3.09;59.64;100932.69;1729567;80;21073;-58
2021/12/27 02:35:33;;;;;;;15.30;8.83;;;;;;;-2.98;59.49;100928.23;1724216;82;21078;-58
2021/12/27 02:38:00;;;;;;;14.40;8.53;;;;;;;-2.97;59.15;100929.95;1711410;81;21038;-58
2021/12/27 02:40:29;;;;;;;18.07;9.10;;;;;;;-3.00;59.12;100932.12;1723139;80;21626;-58
2021/12/27 02:43:16;;;;;;;17.02;8.05;;;;;;;-2.99;59.27;100932.55;1738067;80;21932;-58
2021/12/27 02:45:48;;;;;;;15.88;8.08;;;;;;;-2.90;59.31;100934.12;1711548;80;21079;-58
2021/12/27 02:48:15;;;;;;;16.77;9.05;;;;;;;-2.84;59.19;100932.75;1718993;81;21504;-58
2021/12/27 02:50:44;;;;;;;17.87;8.05;;;;;;;-2.76;58.97;100934.34;1734111;82;21111;-58
2021/12/27 02:53:11;;;;;;;19.25;9.60;;;;;;;-2.70;58.97;100941.53;1736588;80;21007;-58
2021/12/27 02:55:37;;;;;;;17.98;8.43;;;;;;;-2.58;58.72;100944.34;1737031;80;21516;-58
2021/12/27 02:58:04;;;;;;;18.07;8.58;;;;;;;-2.49;58.72;100942.05;1728002;80;21215;-57
2021/12/27 03:00:44;;;;;;;21.42;10.20;;;;;;;-2.40;58.17;100943.20;1723512;81;21742;-59
2021/12/27 03:03:11;;;;;;;14.18;7.78;;;;;;;-2.41;58.01;100947.08;1737778;80;21028;-58
2021/12/27 03:05:38;;;;;;;15.40;8.90;;;;;;;-2.43;57.90;100941.95;1730596;80;21071;-58
2021/12/27 03:08:05;;;;;;;18.60;8.18;;;;;;;-2.41;58.00;100947.08;1743560;80;21026;-58
2021/12/27 03:10:33;;;;;;;16.97;8.05;;;;;;;-2.37;57.62;100950.00;1723305;80;21046;-58
2021/12/27 03:13:01;;;;;;;17.48;8.65;;;;;;;-2.47;57.53;100946.73;1724406;81;21034;-58
2021/12/27 03:15:27;;;;;;;16.12;7.72;;;;;;;-2.56;57.83;100949.48;1727792;82;21051;-58
2021/12/27 03:17:54;;;;;;;14.95;8.95;;;;;;;-2.58;58.04;100961.09;1743797;80;21544;-58
2021/12/27 03:20:25;;;;;;;19.65;8.85;;;;;;;-2.62;58.18;100958.17;1733308;80;21090;-58
2021/12/27 03:22:51;;;;;;;15.32;8.35;;;;;;;-2.57;58.51;100964.52;1707364;81;21972;-58
2021/12/27 03:25:21;;;;;;;15.45;8.08;;;;;;;-2.46;58.27;100967.32;1741265;80;21062;-59
2021/12/27 03:27:47;;;;;;;15.93;8.20;;;;;;;-2.44;58.12;100966.02;1723347;81;21070;-58
2021/12/27 03:30:18;;;;;;;17.32;8.95;;;;;;;-2.46;58.05;100967.32;1736343;80;21047;-59
2021/12/27 03:32:45;;;;;;;15.35;8.28;;;;;;;-2.46;58.09;100969.06;1734546;80;20999;-58
2021/12/27 03:35:15;;;;;;;15.60;8.35;;;;;;;-2.41;58.21;100974.14;1743479;80;21144;-58
2021/12/27 03:37:48;;;;;;;19.20;10.03;;;;;;;-2.38;58.08;100972.81;1741156;80;21428;-59
2021/12/27 03:40:16;;;;;;;18.73;9.88;;;;;;;-2.40;58.07;100969.38;1729612;80;21073;-59
2021/12/27 03:42:43;;;;;;;15.60;9.20;;;;;;;-2.39;58.00;100975.80;1724232;80;20987;-59
2021/12/27 03:45:09;;;;;;;18.60;10.20;;;;;;;-2.38;58.02;100976.67;1743308;80;21065;-58
2021/12/27 03:47:37;;;;;;;14.98;8.93;;;;;;;-2.34;58.14;100984.31;1742669;80;21166;-59
2021/12/27 03:50:05;;;;;;;17.15;9.28;;;;;;;-2.30;58.13;100976.11;1710404;81;21001;-58
2021/12/27 03:52:32;;;;;;;17.32;9.68;;;;;;;-2.22;58.04;100983.69;1728404;80;21090;-59
2021/12/27 03:54:59;;;;;;;13.62;9.10;;;;;;;-2.16;57.87;100983.14;1738880;80;21554;-59
2021/12/27 03:57:25;;;;;;;16.73;9.25;;;;;;;-2.16;57.73;100983.14;1727894;80;21007;-58
2021/12/27 04:00:15;;;;;;;15.55;9.40;;;;;;;-2.13;57.68;100984.84;1732360;80;21156;-59
2021/12/27 04:02:21;;;;;;;16.73;9.88;;;;;;;-2.11;57.60;100983.91;1725513;81;21047;-58
2021/12/27 04:04:47;;;;;;;16.42;9.23;;;;;;;-2.12;57.61;100983.52;1738820;80;21098;-59
2021/12/27 04:07:14;;;;;;;16.35;8.50;;;;;;;-2.07;57.88;100988.57;1729008;81;21039;-59
2021/12/27 04:09:40;;;;;;;15.53;8.30;;;;;;;-2.02;57.85;100992.36;1743859;80;21046;-59
2021/12/27 04:12:08;;;;;;;12.13;7.28;;;;;;;-1.98;57.97;100988.87;1743557;80;21595;-59
2021/12/27 04:14:36;;;;;;;14.13;8.40;;;;;;;-1.96;57.92;100985.36;1732684;80;21008;-57
2021/12/27 04:17:03;;;;;;;12.73;7.60;;;;;;;-1.87;57.94;100990.78;1724420;81;21480;-59
2021/12/27 04:19:29;;;;;;;14.53;7.78;;;;;;;-1.81;57.80;100989.84;1731369;81;22095;-59
2021/12/27 04:21:56;;;;;;;12.95;8.05;;;;;;;-1.77;57.71;100998.76;1740423;80;21489;-58
2021/12/27 04:24:23;;;;;;;13.30;7.33;;;;;;;-1.75;57.45;100996.16;1744400;80;21144;-58
2021/12/27 04:26:51;;;;;;;12.78;7.47;;;;;;;-1.76;57.03;101007.38;1743600;80;21039;-59
2021/12/27 04:29:17;;;;;;;13.65;7.70;;;;;;;-1.76;57.03;101007.38;1735646;80;21570;-58
2021/12/27 04:31:43;;;;;;;12.53;7.08;;;;;;;-1.77;57.47;101007.78;1723710;80;21074;-58
2021/12/27 04:34:10;;;;;;;12.82;6.90;;;;;;;-1.78;57.35;101016.84;1716083;80;21023;-59
2021/12/27 04:36:36;;;;;;;14.20;7.83;;;;;;;-1.86;57.58;101020.88;1714624;80;21133;-57
2021/12/27 04:39:02;;;;;;;11.60;7.17;;;;;;;-1.92;57.62;101020.98;1724306;80;21035;-57
2021/12/27 04:41:30;;;;;;;14.43;7.92;;;;;;;-1.90;57.71;101025.66;1726759;80;21090;-59
2021/12/27 04:43:56;;;;;;;16.80;8.55;;;;;;;-1.89;57.84;101033.82;1709236;80;21071;-58
2021/12/27 04:46:23;;;;;;;14.40;7.58;;;;;;;-1.87;57.84;101036.80;1724946;81;21111;-59
2021/12/27 04:48:52;;;;;;;14.35;9.20;;;;;;;-1.88;57.72;101035.09;1724253;81;21086;-59
2021/12/27 04:51:20;;;;;;;16.37;8.80;;;;;;;-1.86;57.77;101033.77;1716056;80;21047;-59
2021/12/27 04:53:50;;;;;;;14.87;9.13;;;;;;;-1.82;58.07;101043.14;1730508;80;21505;-59
2021/12/27 04:56:17;;;;;;;18.00;8.63;;;;;;;-1.73;58.07;101045.57;1731277;80;21046;-59
2021/12/27 04:58:47;;;;;;;14.68;8.08;;;;;;;-1.65;57.86;101045.86;1730907;80;20997;-59
2021/12/27 05:01:14;;;;;;;16.37;8.25;;;;;;;-1.65;57.68;101047.15;1737210;80;22068;-59
2021/12/27 05:03:40;;;;;;;14.85;8.85;;;;;;;-1.64;57.62;101049.70;1737134;80;21062;-59
2021/12/27 05:06:07;;;;;;;16.80;7.80;;;;;;;-1.62;57.41;101057.42;1719244;81;21532;-59
2021/12/27 05:08:33;;;;;;;13.15;7.55;;;;;;;-1.62;57.36;101062.13;1732150;80;20996;-59
2021/12/27 05:10:59;;;;;;;18.32;8.40;;;;;;;-1.61;57.38;101067.72;1732710;80;21278;-58
2021/12/27 05:13:26;;;;;;;13.98;7.58;;;;;;;-1.59;57.47;101059.50;1734559;80;23308;-59
2021/12/27 05:15:53;;;;;;;13.62;7.53;;;;;;;-1.54;57.39;101055.55;1730354;80;21040;-59
2021/12/27 05:18:19;;;;;;;17.10;7.75;;;;;;;-1.55;57.11;101062.87;1723066;81;21106;-59
2021/12/27 05:20:45;;;;;;;12.53;7.35;;;;;;;-1.61;56.96;101069.45;1719215;81;21031;-58
2021/12/27 05:23:12;;;;;;;12.00;6.37;;;;;;;-1.66;56.99;101077.69;1720425;80;20988;-59
2021/12/27 05:25:38;;;;;;;15.18;8.73;;;;;;;-1.66;56.99;101077.69;1738293;80;21098;-59
2021/12/27 05:28:05;;;;;;;11.57;6.58;;;;;;;-1.75;57.14;101079.59;1733241;80;21099;-59
2021/12/27 05:30:33;;;;;;;14.80;7.85;;;;;;;-1.78;57.27;101082.22;1738187;80;21450;-59
2021/12/27 05:32:59;;;;;;;10.68;7.47;;;;;;;-1.77;57.56;101089.51;1729732;80;21079;-58
2021/12/27 05:35:25;;;;;;;14.30;8.83;;;;;;;-1.77;57.66;101089.06;1742871;80;21689;-59
2021/12/27 05:37:52;;;;;;;15.55;8.08;;;;;;;-1.76;57.83;101088.20;1719603;81;21063;-58
2021/12/27 05:40:20;;;;;;;14.58;7.55;;;;;;;-1.76;57.83;101088.20;1736878;80;21572;-59
2021/12/27 05:42:46;;;;;;;11.88;7.60;;;;;;;-1.70;57.57;101090.67;1740544;80;21083;-59
2021/12/27 05:45:13;;;;;;;13.48;7.80;;;;;;;-1.70;57.45;101098.42;1715443;81;21054;-59
2021/12/27 05:47:40;;;;;;;12.85;7.05;;;;;;;-1.71;57.68;101097.16;1730167;80;21401;-57
2021/12/27 05:50:07;;;;;;;13.50;6.67;;;;;;;-1.66;57.65;101100.91;1729394;80;21097;-58
2021/12/27 05:52:34;;;;;;;13.43;8.15;;;;;;;-1.65;57.65;101106.05;1721210;80;21007;-58
2021/12/27 05:55:01;;;;;;;16.85;8.20;;;;;;;-1.65;57.77;101106.05;1724510;80;21911;-58
2021/12/27 05:57:28;;;;;;;12.37;7.78;;;;;;;-1.57;57.65;101111.09;1721356;80;21169;-58
2021/12/27 05:59:54;;;;;;;12.88;7.50;;;;;;;-1.56;57.57;101109.78;1728771;80;21039;-58
2021/12/27 06:02:20;;;;;;;13.15;8.25;;;;;;;-1.59;57.44;101121.44;1718801;80;21228;-59
2021/12/27 06:04:47;;;;;;;16.30;8.83;;;;;;;-1.59;57.44;101121.44;1721299;80;21633;-58
2021/12/27 06:07:13;;;;;;;17.23;8.58;;;;;;;-1.61;57.43;101121.07;1723247;82;21074;-58
2021/12/27 06:09:41;;;;;;;13.13;7.33;;;;;;;-1.67;57.43;101123.75;1719402;81;21059;-58
2021/12/27 06:12:08;;;;;;;16.77;8.45;;;;;;;-1.72;57.72;101126.41;1719411;80;21078;-58
2021/12/27 06:14:34;;;;;;;15.08;8.60;;;;;;;-1.73;57.83;101124.27;1719375;80;21112;-59
2021/12/27 06:17:03;;;;;;;15.05;8.90;;;;;;;-1.72;57.81;101125.95;1720914;80;21051;-58
2021/12/27 06:19:29;;;;;;;17.05;7.83;;;;;;;-1.77;57.97;101120.02;1716698;81;21070;-58
2021/12/27 06:21:56;;;;;;;15.60;7.90;;;;;;;-1.74;58.03;101128.16;1730305;80;21525;-58
2021/12/27 06:24:22;;;;;;;12.40;7.03;;;;;;;-1.72;57.95;101136.72;1695576;82;21062;-59
2021/12/27 06:26:48;;;;;;;12.88;7.15;;;;;;;-1.71;57.88;101128.95;1664025;84;21088;-59
2021/12/27 06:29:15;;;;;;;14.75;7.60;;;;;;;-1.67;57.84;101132.78;1731809;80;21067;-59
2021/12/27 06:31:42;;;;;;;15.98;9.30;;;;;;;-1.65;57.77;101139.60;1725752;81;21537;-58
2021/12/27 06:34:08;;;;;;;20.23;9.55;;;;;;;-1.62;57.89;101141.30;1723085;81;21057;-59
2021/12/27 06:36:35;;;;;;;15.23;9.73;;;;;;;-1.65;57.84;101137.02;1741733;80;21146;-59
2021/12/27 06:39:01;;;;;;;14.35;8.45;;;;;;;-1.64;57.80;101136.16;1742249;80;21133;-58
2021/12/27 06:41:28;;;;;;;19.07;8.30;;;;;;;-1.72;57.65;101138.86;1750086;80;21059;-58
2021/12/27 06:43:54;;;;;;;16.32;8.30;;;;;;;-1.81;57.74;101145.92;1725337;80;21107;-58
2021/12/27 06:46:20;;;;;;;14.05;8.33;;;;;;;-1.88;57.95;101142.14;1754974;80;21051;-58
2021/12/27 06:48:47;;;;;;;14.78;8.18;;;;;;;-1.90;57.93;101141.73;1744762;80;21419;-60
2021/12/27 06:51:13;;;;;;;12.82;8.23;;;;;;;-1.94;58.02;101144.81;1730074;80;21144;-58
2021/12/27 06:53:40;;;;;;;14.80;8.08;;;;;;;-2.00;58.12;101147.92;1738725;80;21042;-58
2021/12/27 06:56:06;;;;;;;14.93;7.90;;;;;;;-2.00;58.22;101153.95;1735620;80;21114;-58
2021/12/27 06:58:33;;;;;;;13.75;8.20;;;;;;;-2.03;58.37;101150.55;1736432;80;21020;-58
2021/12/27 07:00:59;;;;;;;13.68;8.28;;;;;;;-2.10;58.51;101144.63;1739722;80;21126;-58
2021/12/27 07:03:25;;;;;;;15.38;9.28;;;;;;;-2.08;58.71;101150.64;1742768;80;21149;-58
2021/12/27 07:05:52;;;;;;;16.15;8.55;;;;;;;-2.03;58.81;101150.55;1740746;80;20995;-58
2021/12/27 07:08:19;;;;;;;14.47;7.17;;;;;;;-2.00;58.67;101150.50;1740900;81;21540;-57
2021/12/27 07:10:45;;;;;;;13.28;7.78;;;;;;;-2.03;58.50;101149.26;1730754;80;21050;-58
2021/12/27 07:13:12;;;;;;;20.05;7.83;;;;;;;-2.06;58.66;101145.86;1736482;80;21062;-58
2021/12/27 07:15:41;;;;;;;15.83;7.83;;;;;;;-2.07;58.60;101145.47;1725251;81;21106;-58
2021/12/27 07:18:12;;;;;;;14.85;8.90;;;;;;;-2.05;58.69;101149.31;1735274;80;21014;-58
2021/12/27 07:20:39;;;;;;;15.43;8.68;;;;;;;-2.03;58.85;101153.13;1741997;80;21003;-59
2021/12/27 07:23:06;;;;;;;13.75;8.83;;;;;;;-2.00;58.78;101157.83;1722928;81;21110;-58
2021/12/27 07:25:33;;;;;;;16.52;8.55;;;;;;;-2.00;58.73;101159.53;1740013;80;21046;-59
2021/12/27 07:28:00;;;;;;;12.95;8.10;;;;;;;-2.01;58.71;101160.43;1735566;80;22437;-58
2021/12/27 07:30:28;;;;;;;16.65;8.85;;;;;;;-1.99;58.63;101165.12;1739672;80;21040;-58
2021/12/27 07:32:57;;;;;;;17.55;9.48;;;;;;;-2.04;58.74;101166.47;1722326;80;21561;-58
2021/12/27 07:35:24;;;;;;;15.58;9.10;;;;;;;-2.03;58.82;101172.05;1718590;80;20996;-58
2021/12/27 07:37:52;;;;;;;16.10;8.78;;;;;;;-1.98;58.77;101174.57;1731802;80;21062;-58
2021/12/27 07:40:18;;;;;;;15.65;8.00;;;;;;;-1.98;58.59;101176.70;1733222;80;22325;-58
2021/12/27 07:42:45;;;;;;;16.87;8.43;;;;;;;-1.97;58.62;101174.97;1747766;80;21082;-58
2021/12/27 07:47:31;;;;;;;17.62;9.10;;;;;;;-2.07;58.66;101181.98;1782393;78;22785;-59
2021/12/27 07:49:58;;;;;;;19.50;8.75;;;;;;;-2.18;58.89;101191.62;1758632;80;21023;-58
2021/12/27 07:52:24;;;;;;;14.93;9.78;;;;;;;-2.23;59.15;101189.11;1730959;79;22322;-58
2021/12/27 07:54:51;;;;;;;15.65;8.90;;;;;;;-2.28;59.32;101181.42;1759834;79;20976;-59
2021/12/27 07:57:17;;;;;;;18.77;9.58;;;;;;;-2.26;59.43;101182.25;1735197;79;21089;-58
2021/12/27 07:59:47;;;;;;;16.20;8.88;;;;;;;-2.21;59.71;101182.64;1763608;79;21189;-58
2021/12/27 08:02:13;;;;;;;15.72;8.25;;;;;;;-2.12;59.54;101187.23;1755687;79;21051;-58
2021/12/27 08:04:40;;;;;;;18.35;9.50;;;;;;;-2.04;59.40;101194.84;1757983;79;21075;-59
2021/12/27 08:07:07;;;;;;;17.57;9.78;;;;;;;-1.99;59.17;101201.23;1764423;79;21063;-57
2021/12/27 08:09:33;;;;;;;20.75;9.60;;;;;;;-1.97;59.05;101195.59;1757068;79;20998;-58
2021/12/27 08:12:00;;;;;;;24.40;12.00;;;;;;;-1.96;59.09;101191.70;1757565;79;21519;-59
2021/12/27 08:14:26;;;;;;;18.45;11.00;;;;;;;-1.93;58.92;101191.67;1754891;79;21050;-59
2021/12/27 08:16:52;;;;;;;22.15;12.53;;;;;;;-1.91;58.68;101192.94;1757120;80;23327;-59
2021/12/27 08:19:19;;;;;;;23.10;10.68;;;;;;;-1.93;58.81;101197.28;1756006;80;21076;-59
2021/12/27 08:21:45;;;;;;;26.73;11.53;;;;;;;-1.93;58.83;101195.98;1759632;79;21055;-59
2021/12/27 08:24:12;;;;;;;21.23;11.48;;;;;;;-1.97;59.09;101193.86;1731210;81;21532;-59
2021/12/27 08:26:38;;;;;;;18.17;9.53;;;;;;;-1.96;59.49;101196.03;1763423;81;20986;-59
2021/12/27 08:29:07;;;;;;;20.52;10.08;;;;;;;-1.86;59.34;101195.01;1730455;81;21206;-58
2021/12/27 08:31:34;;;;;;;26.50;12.07;;;;;;;-1.78;59.35;101189.70;1762293;79;21129;-58
2021/12/27 08:34:00;;;;;;;21.73;10.90;;;;;;;-1.71;59.09;101187.02;1762035;80;21118;-57
2021/12/27 08:36:27;;;;;;;26.23;10.43;;;;;;;-1.62;58.45;101193.75;1761976;79;21367;-59
2021/12/27 08:38:53;;;;;;;30.43;11.78;;;;;;;-1.65;58.32;101193.80;1763003;79;21003;-58
2021/12/27 08:41:20;;;;;;;23.67;11.30;;;;;;;-1.61;58.33;101192.05;1757558;79;21659;-58
2021/12/27 08:43:46;;;;;;;22.58;12.63;;;;;;;-1.61;58.28;101191.59;1766037;79;21114;-58
2021/12/27 08:46:13;;;;;;;24.95;10.90;;;;;;;-1.63;58.11;101188.61;1762434;80;21106;-58
2021/12/27 08:48:40;;;;;;;28.70;12.18;;;;;;;-1.70;58.09;101190.44;1757399;80;21105;-58
2021/12/27 08:51:06;;;;;;;24.55;11.05;;;;;;;-1.80;58.26;101188.47;1751360;79;21074;-58
2021/12/27 08:53:33;;;;;;;24.90;11.10;;;;;;;-1.86;58.50;101183.39;1725508;81;21186;-59
2021/12/27 08:56:01;;;;;;;26.00;11.38;;;;;;;-1.89;58.56;101180.86;1755301;79;21072;-58
2021/12/27 08:58:28;;;;;;;24.90;10.63;;;;;;;-1.96;58.81;101181.39;1754990;79;21450;-58
2021/12/27 09:00:55;;;;;;;24.35;10.78;;;;;;;-1.99;58.89;101177.56;1754349;81;21047;-58
2021/12/27 09:03:59;;;;;;;23.12;10.78;;;;;;;-2.04;59.03;101175.94;1794608;78;22885;-58
2021/12/27 09:06:27;;;;;;;24.10;12.18;;;;;;;-2.11;59.30;101173.89;1772659;79;21528;-58
2021/12/27 09:08:55;;;;;;;26.75;9.00;;;;;;;-2.10;59.53;101173.88;1771523;80;21249;-58
2021/12/27 09:13:44;;;;;;;20.70;10.93;;;;;;;-2.00;59.23;101172.42;1802586;78;22684;-58
2021/12/27 09:16:13;;;;;;;18.10;9.03;;;;;;;-2.10;59.40;101175.58;1776662;80;21056;-57
2021/12/27 09:18:40;;;;;;;21.87;11.43;;;;;;;-2.07;59.33;101171.67;1765540;80;21069;-57
2021/12/27 09:21:07;;;;;;;21.42;9.55;;;;;;;-2.07;59.53;101169.09;1765633;80;21006;-59
2021/12/27 09:23:34;;;;;;;22.10;10.95;;;;;;;-2.06;59.93;101171.65;1742520;80;20992;-58
2021/12/27 09:26:00;;;;;;;22.45;11.57;;;;;;;-2.06;59.93;101171.65;1774513;80;20999;-58
2021/12/27 09:28:26;;;;;;;21.40;10.72;;;;;;;-2.06;59.61;101170.36;1749667;80;21015;-58
2021/12/27 09:30:53;;;;;;;21.50;11.18;;;;;;;-2.07;59.68;101171.25;1770009;79;23346;-58
2021/12/27 09:33:20;;;;;;;20.48;10.58;;;;;;;-2.09;59.67;101165.24;1767096;79;23132;-57
2021/12/27 09:35:47;;;;;;;24.95;11.68;;;;;;;-2.13;59.64;101171.33;1765027;79;20976;-58
2021/12/27 09:38:13;;;;;;;22.52;11.48;;;;;;;-2.13;59.85;101171.33;1748009;80;21109;-58
2021/12/27 09:40:40;;;;;;;18.62;10.90;;;;;;;-2.09;59.99;101171.69;1772545;79;21387;-59
2021/12/27 09:43:07;;;;;;;18.85;9.23;;;;;;;-2.03;60.04;101175.05;1769989;79;21026;-59
2021/12/27 09:45:33;;;;;;;16.93;8.65;;;;;;;-1.95;59.94;101171.92;1754776;80;21085;-57
2021/12/27 09:48:01;;;;;;;15.28;7.17;;;;;;;-1.91;59.94;101169.72;1758823;79;21475;-58
2021/12/27 09:50:37;;;;;;;13.30;7.33;;;;;;;-1.89;59.99;101165.38;1770249;79;21582;-58
2021/12/27 09:53:04;;;;;;;19.02;8.23;;;;;;;-1.87;59.94;101163.63;1771583;79;21587;-59
2021/12/27 09:55:32;;;;;;;14.28;7.53;;;;;;;-1.79;60.29;101168.23;1769276;80;21011;-59
2021/12/27 09:57:59;;;;;;;22.00;7.83;;;;;;;-1.63;60.09;101169.25;1738582;80;21030;-59
2021/12/27 10:00:27;;;;;;;14.95;7.70;;;;;;;-1.52;59.03;101177.67;1752349;80;21027;-59
2021/12/27 10:02:56;;;;;;;18.55;8.05;;;;;;;-1.52;59.03;101177.67;1738677;80;21833;-59
2021/12/27 10:05:25;;;;;;;14.93;7.72;;;;;;;-1.48;59.01;101178.02;1766715;80;21000;-59
2021/12/27 10:07:53;;;;;;;15.32;8.50;;;;;;;-1.46;59.01;101176.29;1766070;80;21031;-57
2021/12/27 10:10:21;;;;;;;15.83;7.97;;;;;;;-1.38;58.93;101174.43;1761890;79;21083;-57
2021/12/27 10:12:47;;;;;;;17.10;8.08;;;;;;;-1.38;58.93;101174.43;1770367;80;21042;-58
2021/12/27 10:15:17;;;;;;;22.98;9.18;;;;;;;-1.38;58.83;101176.13;1740257;80;21043;-59
2021/12/27 10:17:46;;;;;;;19.02;9.28;;;;;;;-1.35;58.66;101176.09;1771146;80;21064;-58
2021/12/27 10:20:21;;;;;;;18.55;9.58;;;;;;;-1.44;58.65;101172.39;1770920;78;21105;-57
2021/12/27 10:22:51;;;;;;;13.90;8.38;;;;;;;-1.58;58.65;101177.35;1748937;80;21050;-59
2021/12/27 10:25:23;;;;;;;15.68;8.43;;;;;;;-1.68;58.97;101174.52;1742261;80;21093;-59
2021/12/27 10:27:53;;;;;;;18.73;9.45;;;;;;;-1.71;59.36;101173.27;1739545;80;21052;-59
2021/12/27 10:30:22;;;;;;;16.82;8.35;;;;;;;-1.68;59.44;101177.09;1771489;79;21165;-58
2021/12/27 10:33:16;;;;;;;19.70;9.20;;;;;;;-1.66;59.51;101170.17;1771539;80;21778;-58
2021/12/27 10:35:47;;;;;;;23.47;9.73;;;;;;;-1.58;59.58;101179.06;1741794;80;21283;-57
2021/12/27 10:38:28;;;;;;;20.60;10.20;;;;;;;-1.52;59.47;101175.94;1732004;80;20972;-58
2021/12/27 10:41:00;;;;;;;22.30;10.43;;;;;;;-1.46;59.45;101180.58;1765281;80;21074;-58
2021/12/27 10:43:39;;;;;;;25.95;10.00;;;;;;;-1.43;59.19;101182.70;1738281;80;20973;-57
2021/12/27 10:46:09;;;;;;;22.02;10.93;;;;;;;-1.38;59.36;101183.47;1727285;82;21665;-59
2021/12/27 10:48:39;;;;;;;29.57;13.10;;;;;;;-1.27;59.27;101181.12;1682707;83;21154;-58
2021/12/27 10:51:06;;;;;;;26.27;12.05;;;;;;;-1.22;59.18;101181.89;1710170;82;21098;-58
2021/12/27 10:53:49;;;;;;;21.35;12.00;;;;;;;-1.18;58.92;101184.40;1704325;82;21058;-59
2021/12/27 10:56:17;;;;;;;25.95;12.07;;;;;;;-1.14;58.72;101183.89;1708165;82;21046;-57
2021/12/27 10:58:52;;;;;;;28.92;12.75;;;;;;;-1.13;58.38;101194.20;1706795;83;21181;-59
2021/12/27 11:01:20;;;;;;;22.80;11.47;;;;;;;-1.16;58.55;101189.50;1675933;83;21051;-57
2021/12/27 11:03:49;;;;;;;25.80;12.28;;;;;;;-1.17;58.57;101182.66;1711757;82;21102;-58
2021/12/27 11:06:24;;;;;;;26.37;11.35;;;;;;;-1.17;58.66;101183.95;1679971;82;21106;-57
2021/12/27 11:08:52;;;;;;;21.07;12.65;;;;;;;-1.12;58.64;101183.42;1705536;81;21662;-58
2021/12/27 11:11:20;;;;;;;31.85;13.10;;;;;;;-1.12;58.52;101178.25;1685991;82;21839;-59
2021/12/27 11:13:54;;;;;;;19.85;11.15;;;;;;;-1.14;58.52;101173.56;1700171;83;21515;-59
2021/12/27 11:16:21;;;;;;;20.62;11.48;;;;;;;-1.14;58.03;101170.53;1701927;82;21086;-58
2021/12/27 11:18:47;;;;;;;25.60;11.20;;;;;;;-1.14;58.03;101170.53;1699496;84;20994;-58
2021/12/27 11:21:19;;;;;;;18.98;11.33;;;;;;;-1.21;58.24;101167.66;1668877;84;21466;-58
2021/12/27 11:23:50;;;;;;;21.45;12.00;;;;;;;-1.29;58.36;101175.11;1693787;84;21114;-58
2021/12/27 11:26:26;;;;;;;20.55;11.40;;;;;;;-1.37;58.45;101168.37;1689076;83;21071;-58